Flight Track Log - Related Links

Times and Time Zones

All times are in EDT time to prevent confusion due to time zone crossing. See the FLG3733 flight status page for this flight to view local times or setup timezone preferences in your user account.

Time Position Orientation Groundspeed Altitude Reporting Facility
EDT Latitude Longitude Course Direction KTS MPH feet Rate Location/Type
Fri 04:42:58 PM 42.7694 -73.8089 327° Northwest 140 161 1,500  Level Boston Center
Fri 04:43:47 PM 42.8025 -73.8381 327° Northwest 201 231 2,800 1,927 Climbing Boston Center
Fri 04:45:15 PM 42.8678 -73.9358 312° West 258 297 5,900 2,137 Climbing Boston Center
Fri 04:46:13 PM 42.9147 -74.0106 311° West 283 326 8,000 2,288 Climbing Boston Center
Fri 04:47:13 PM 42.9697 -74.1086 307° West 288 331 10,400 1,537 Climbing Boston Center
Fri 04:48:14 PM 42.9825 -74.2253 279° West 317 365 11,100 1,190 Climbing Boston Center
Fri 04:49:14 PM 42.9967 -74.3733 278° West 365 420 12,800 1,587 Climbing Boston Center
Fri 04:50:15 PM 43.0092 -74.4986 278° West 373 429 14,300 1,563 Climbing Boston Center
Fri 04:51:13 PM 43.0231 -74.6469 277° West 366 421 15,900 1,563 Climbing Boston Center
Fri 04:52:14 PM 43.0353 -74.7694 278° West 366 421 17,400 1,388 Climbing Boston Center
Fri 04:53:14 PM 43.0492 -74.9033 278° West 371 427 18,700 1,050 Climbing Boston Center
Fri 04:54:14 PM 43.0606 -75.0403 277° West 365 420 19,500 756 Climbing Boston Center
Fri 04:55:13 PM 43.0719 -75.1803 276° West 370 426 20,200 706 Climbing Boston Center
Fri 04:56:13 PM 43.0850 -75.3228 277° West 370 426 20,900 700 Climbing Boston Center
Fri 04:57:13 PM 43.0981 -75.4686 277° West 376 433 21,600 744 Climbing Boston Center
Fri 04:58:14 PM 43.1122 -75.6314 277° West 386 444 22,400 744 Climbing Boston Center
Fri 04:59:14 PM 43.1267 -75.7831 277° West 391 450 23,100 700 Climbing Boston Center
Fri 05:00:14 PM 43.1389 -75.9344 276° West 396 456 23,800 612 Climbing Boston Center
Fri 05:02:30 PM 43.1550 -76.2581 274° West 412 474 25,100 545 Climbing Cleveland Center
Fri 05:03:32 PM 43.1414 -76.4139 263° West 416 479 25,600 532 Climbing Cleveland Center
Fri 05:04:34 PM 43.1250 -76.6022 263° West 415 478 26,200 532 Climbing Cleveland Center
Fri 05:05:36 PM 43.1114 -76.7597 263° West 420 483 26,700 484 Climbing Cleveland Center
Fri 05:06:38 PM 43.0978 -76.9186 263° West 422 486 27,200 484 Climbing Cleveland Center
Fri 05:07:40 PM 43.0833 -77.0758 263° West 421 484 27,700 387 Climbing Cleveland Center
Fri 05:08:42 PM 43.0694 -77.2314 263° West 417 480 28,000 -677 Climbing Cleveland Center
Fri 05:09:44 PM 43.0500 -77.4267 262° West 435 501 26,300 -968 Descending Cleveland Center
Fri 05:10:46 PM 43.0344 -77.5981 263° West 455 524 26,000 -144 Descending Cleveland Center
Fri 05:11:49 PM 43.0175 -77.7669 262° West 456 525 26,000  Level Cleveland Center
Fri 05:12:51 PM 43.0011 -77.9356 262° West 454 522 26,000  Level Cleveland Center
Fri 05:13:53 PM 42.9842 -78.1058 262° West 457 526 26,000  Level Cleveland Center
Fri 05:14:55 PM 42.9628 -78.3139 262° West 468 539 26,000  Level Cleveland Center
Fri 05:15:57 PM 42.9453 -78.4844 262° West 460 529 26,000  Level Cleveland Center
Fri 05:16:59 PM 42.9281 -78.6550 262° West 456 525 26,000  Level Cleveland Center
Fri 05:18:01 PM 42.9028 -78.8247 259° West 458 527 26,000  Level Cleveland Center
Fri 05:19:03 PM 42.8778 -78.9944 259° West 458 527 26,000  Level Cleveland Center
Fri 05:20:05 PM 42.8483 -79.1981 259° West 459 528 26,000  Level Cleveland Center
Fri 05:21:07 PM 42.8233 -79.3672 259° West 457 526 26,000  Level Cleveland Center
Fri 05:22:09 PM 42.7978 -79.5367 258° West 458 527 26,000  Level Cleveland Center
Fri 05:23:11 PM 42.7717 -79.7069 258° West 460 529 26,000  Level Cleveland Center
Fri 05:24:13 PM 42.7478 -79.8764 259° West 458 527 26,000  Level Cleveland Center
Fri 05:25:15 PM 42.7406 -80.0636 267° West 461 531 26,000  Level Cleveland Center
Fri 05:26:17 PM 42.7344 -80.2375 267° West 459 528 26,000  Level Cleveland Center
Fri 05:27:20 PM 42.7256 -80.4092 266° West 453 521 26,000  Level Cleveland Center
Fri 05:28:22 PM 42.7172 -80.6106 267° West 454 522 26,000 -145 Level Cleveland Center
Fri 05:29:24 PM 42.7097 -80.7881 267° West 466 536 25,700 -871 Descending Cleveland Center
Fri 05:30:26 PM 42.6958 -80.9689 264° West 478 550 24,200 -823 Descending Cleveland Center
Fri 05:31:28 PM 42.6758 -81.1472 261° West 476 548 24,000 -97 Descending Cleveland Center
Fri 05:32:30 PM 42.6572 -81.3119 261° West 445 512 24,000  Level Cleveland Center
Fri 05:33:32 PM 42.6386 -81.4736 261° West 434 499 24,000 -581 Level Cleveland Center
Fri 05:34:34 PM 42.6181 -81.6394 260° West 440 506 22,800 -1,887 Descending Cleveland Center
Fri 05:35:36 PM 42.5956 -81.8369 261° West 459 528 20,100 -2,274 Descending Cleveland Center
Fri 05:36:38 PM 42.5753 -81.9953 260° West 436 502 18,100 -1,790 Descending Cleveland Center
Fri 05:37:40 PM 42.5586 -82.1400 261° West 397 457 16,400 -1,944 Descending Cleveland Center
Fri 05:37:49 PM 42.5561 -82.1792 265° West 388 447 15,800 -2,154 Descending Cleveland Center
Fri 05:38:19 PM 42.5472 -82.2486 260° West 371 427 15,000 -1,132 Descending Cleveland Center
Fri 05:38:42 PM 42.5403 -82.2792 253° West 382 440 14,800 -1,574 Descending Cleveland Center
Fri 05:39:20 PM 42.5294 -82.3881 262° West 366 421 13,400 -1,524 Descending Cleveland Center
Fri 05:39:45 PM 42.5236 -82.4128 252° West 369 425 13,200 -1,377 Descending Cleveland Center
Fri 05:40:21 PM 42.5097 -82.5214 260° West 361 415 12,000 -1,161 Descending Cleveland Center
Fri 05:40:47 PM 42.4994 -82.5731 255° West 363 418 12,000  Level Cleveland Center
Fri 05:41:28 PM 42.4658 -82.6656 244° Southwest 369 425 12,000  Level Cleveland Center
Fri 05:41:49 PM 42.4525 -82.6981 241° Southwest 369 425 12,000 -985 Level Cleveland Center
Fri 05:42:35 PM 42.4350 -82.8028 257° West 331 381 10,900 -1,258 Descending Cleveland Center
Fri 05:42:51 PM 42.4297 -82.8211 249° West 341 392 10,700 -1,418 Descending Cleveland Center
Fri 05:43:30 PM 42.4169 -82.9078 259° West 305 351 9,600 -1,452 Descending Cleveland Center
Fri 05:43:53 PM 42.4106 -82.9319 250° West 316 364 9,200 -1,855 Descending Cleveland Center
Fri 05:44:25 PM 42.3992 -83.0072 258° West 291 335 7,900 -1,742 Descending Cleveland Center
Fri 05:44:55 PM 42.3928 -83.0389 255° West 298 343 7,400 -1,701 Descending Cleveland Center
Fri 05:45:32 PM 42.3806 -83.1147 258° West 274 315 6,000 -2,032 Descending Cleveland Center
Fri 05:45:57 PM 42.3731 -83.1567 256° West 277 319 5,300 -1,967 Descending Cleveland Center
Fri 05:46:33 PM 42.3644 -83.2144 259° West 258 297 4,000 -1,742 Descending Cleveland Center
Fri 05:46:59 PM 42.3456 -83.2419 227° Southwest 262 302 3,500 -1,377 Descending Cleveland Center
Fri 05:47:34 PM 42.3081 -83.2686 208° Southwest 233 268 2,600 -1,258 Descending Cleveland Center
Fri 05:48:01 PM 42.2872 -83.2831 207° Southwest 241 277 2,200 -984 Descending Cleveland Center
Fri 05:48:35 PM 42.2592 -83.3042 209° Southwest 169 194 1,600 -774 Descending Cleveland Center
Fri 05:49:03 PM 42.2450 -83.3136 206° Southwest 182 209 1,400 -787 Descending Cleveland Center
Fri 05:49:36 PM 42.2233 -83.3328 213° Southwest 141 162 800 -484 Descending Cleveland Center
Fri 05:50:05 PM 42.2075 -83.3403 199° South 158 182 900 207 Climbing Cleveland Center
Fri 05:52:00 PM 42.2000 -83.3500 246° West  Level FlightAware Approximate
Fri 05:59:00 PM 42.2124 -83.3534 246° West  Level Estimated

Login

Don't have an account? Register now (free) for customized features, flight alerts, and more!